createdAt,value
2022-10-31T00:06:58.188Z,18.10
2022-10-31T00:17:01.785Z,18.00
2022-10-31T00:27:12.233Z,18.00
2022-10-31T00:37:16.143Z,18.00
2022-10-31T00:47:21.457Z,18.10
2022-10-31T00:57:25.269Z,18.00
2022-10-31T01:07:30.458Z,17.90
2022-10-31T01:17:37.148Z,17.90
2022-10-31T01:27:42.147Z,18.10
2022-10-31T01:37:45.707Z,18.30
2022-10-31T01:47:51.708Z,18.50
2022-10-31T01:58:00.437Z,18.50
2022-10-31T02:08:10.622Z,18.30
2022-10-31T02:18:16.436Z,18.30
2022-10-31T02:28:40.629Z,18.20
2022-10-31T02:38:54.657Z,18.10
2022-10-31T02:49:02.592Z,17.90
2022-10-31T02:59:07.776Z,17.80
2022-10-31T03:09:20.342Z,17.80
2022-10-31T03:19:31.142Z,17.70
2022-10-31T03:29:38.704Z,17.70
2022-10-31T03:39:45.638Z,17.70
2022-10-31T03:49:51.954Z,17.70
2022-10-31T04:00:01.478Z,17.60
2022-10-31T04:10:09.286Z,17.50
2022-10-31T04:20:18.631Z,17.40
2022-10-31T04:30:22.330Z,17.40
2022-10-31T04:40:27.481Z,17.30
2022-10-31T04:50:31.172Z,17.10
2022-10-31T05:00:36.491Z,17.20
2022-10-31T05:10:40.381Z,17.30
2022-10-31T05:20:45.869Z,17.30
2022-10-31T05:30:51.804Z,17.10
2022-10-31T05:41:01.212Z,17.10
2022-10-31T05:51:08.019Z,17.00
2022-10-31T06:01:13.267Z,17.00
2022-10-31T06:11:17.345Z,17.00
2022-10-31T06:21:22.675Z,17.20
2022-10-31T06:31:26.293Z,17.40
2022-10-31T06:41:31.368Z,17.50
2022-10-31T06:51:35.052Z,17.60
2022-10-31T07:01:40.311Z,17.70
2022-10-31T07:11:44.328Z,17.70
2022-10-31T07:21:49.466Z,17.80
2022-10-31T07:31:53.579Z,18.10
2022-10-31T07:42:00.897Z,18.60
2022-10-31T07:52:04.576Z,19.20
2022-10-31T08:02:10.859Z,19.30
2022-10-31T08:12:14.628Z,19.30
2022-10-31T08:22:20.063Z,19.80
2022-10-31T08:32:23.808Z,20.30
2022-10-31T08:42:29.061Z,20.90
2022-10-31T08:52:58.937Z,21.60
2022-10-31T09:03:02.702Z,21.80
2022-10-31T09:13:08.588Z,21.90
2022-10-31T09:23:17.242Z,21.80
2022-10-31T09:33:24.413Z,21.90
2022-10-31T09:43:38.625Z,22.50
2022-10-31T09:53:46.257Z,23.40
2022-10-31T10:03:55.484Z,23.40
2022-10-31T10:14:14.747Z,23.50
2022-10-31T10:24:39.531Z,23.50
2022-10-31T10:34:48.834Z,24.10
2022-10-31T10:45:11.598Z,24.60
2022-10-31T10:55:26.342Z,24.70
2022-10-31T11:05:38.565Z,24.60
2022-10-31T11:15:54.907Z,25.10
2022-10-31T11:26:01.404Z,25.40
2022-10-31T11:36:21.428Z,25.30
2022-10-31T11:46:34.708Z,25.50
2022-10-31T11:56:42.820Z,25.70
2022-10-31T12:06:51.224Z,25.40
2022-10-31T12:16:59.861Z,25.40
2022-10-31T12:27:16.355Z,25.80
2022-10-31T12:37:33.130Z,25.60
2022-10-31T12:47:55.075Z,25.50
2022-10-31T12:58:03.656Z,25.40
2022-10-31T13:08:12.684Z,25.00
2022-10-31T13:18:24.567Z,24.70
2022-10-31T13:28:39.552Z,25.10
2022-10-31T13:38:49.411Z,25.00
2022-10-31T13:48:54.570Z,25.50
2022-10-31T13:59:22.127Z,24.80
2022-10-31T14:09:34.512Z,24.50
2022-10-31T14:19:38.424Z,25.90
2022-10-31T14:29:47.952Z,25.60
2022-10-31T14:40:20.001Z,24.60
2022-10-31T14:50:34.753Z,24.40
2022-10-31T15:00:39.082Z,25.30
2022-10-31T15:10:48.737Z,24.50
2022-10-31T15:20:53.908Z,23.60
2022-10-31T15:31:00.778Z,23.00
2022-10-31T15:41:07.347Z,22.20
2022-10-31T15:51:12.515Z,22.50
2022-10-31T16:01:24.828Z,22.10
2022-10-31T16:11:36.454Z,22.20
2022-10-31T16:21:41.365Z,22.20
2022-10-31T16:31:49.499Z,22.00
2022-10-31T16:41:57.574Z,21.70
2022-10-31T16:52:02.796Z,21.60
2022-10-31T17:02:07.326Z,21.90
2022-10-31T17:12:20.055Z,21.70
2022-10-31T17:22:23.956Z,21.60
2022-10-31T17:32:29.682Z,21.80
2022-10-31T17:42:33.671Z,22.00
2022-10-31T17:52:38.717Z,21.90
2022-10-31T18:02:42.773Z,22.00
2022-10-31T18:12:49.050Z,21.70
2022-10-31T18:22:52.868Z,21.40
2022-10-31T18:32:58.075Z,21.50
2022-10-31T18:43:01.972Z,21.40
2022-10-31T18:53:07.352Z,21.90
2022-10-31T19:03:11.098Z,21.60
2022-10-31T19:13:16.404Z,21.60
2022-10-31T19:23:20.310Z,21.50
2022-10-31T19:33:29.588Z,21.50
2022-10-31T19:43:37.120Z,21.40
2022-10-31T19:53:42.291Z,21.60
2022-10-31T20:03:47.479Z,21.60
2022-10-31T20:13:53.277Z,21.50
2022-10-31T20:23:57.957Z,21.50
2022-10-31T20:34:03.211Z,21.10
2022-10-31T20:44:07.507Z,20.80
2022-10-31T20:54:14.253Z,20.90
2022-10-31T21:04:18.296Z,21.10
2022-10-31T21:14:23.885Z,20.90
2022-10-31T21:24:29.100Z,20.70
2022-10-31T21:34:34.450Z,20.50
2022-10-31T21:44:38.593Z,20.50
2022-10-31T21:54:43.695Z,20.40
2022-10-31T22:04:50.480Z,20.40
2022-10-31T22:14:55.551Z,20.80
2022-10-31T22:24:59.410Z,21.00
2022-10-31T22:35:05.312Z,21.20
2022-10-31T22:45:10.082Z,21.20
2022-10-31T22:55:15.769Z,21.10
2022-10-31T23:05:19.557Z,21.20
2022-10-31T23:15:24.827Z,21.20
2022-10-31T23:25:45.894Z,21.10
2022-10-31T23:35:51.071Z,20.80
2022-10-31T23:45:54.971Z,20.60
2022-10-31T23:56:00.079Z,20.50
